sensor_id;sensor_type;location;lat;lon;timestamp;pressure;altitude;pressure_sealevel;temperature;humidity
47530;BME280;33272;51.922;7.730;2023-04-28T00:00:56;144872.19;;;9.57;64.36
47530;BME280;33272;51.922;7.730;2023-04-28T00:03:23;144870.94;;;9.56;64.51
47530;BME280;33272;51.922;7.730;2023-04-28T00:05:52;144872.19;;;9.57;65.49
47530;BME280;33272;51.922;7.730;2023-04-28T00:08:19;144872.19;;;9.57;65.40
47530;BME280;33272;51.922;7.730;2023-04-28T00:10:47;144865.84;;;9.54;65.96
47530;BME280;33272;51.922;7.730;2023-04-28T00:13:15;144869.69;;;9.56;64.95
47530;BME280;33272;51.922;7.730;2023-04-28T00:15:42;144868.38;;;9.55;64.71
47530;BME280;33272;51.922;7.730;2023-04-28T00:18:09;144868.38;;;9.55;64.95
47530;BME280;33272;51.922;7.730;2023-04-28T00:20:36;144868.38;;;9.55;65.19
47530;BME280;33272;51.922;7.730;2023-04-28T00:23:03;144858.25;;;9.51;65.05
47530;BME280;33272;51.922;7.730;2023-04-28T00:25:30;144862.06;;;9.52;65.84
47530;BME280;33272;51.922;7.730;2023-04-28T00:27:57;144857.00;;;9.50;65.01
47530;BME280;33272;51.922;7.730;2023-04-28T00:30:25;144851.91;;;9.48;65.65
47530;BME280;33272;51.922;7.730;2023-04-28T00:32:52;144849.41;;;9.47;65.89
47530;BME280;33272;51.922;7.730;2023-04-28T00:35:20;144849.41;;;9.47;65.40
47530;BME280;33272;51.922;7.730;2023-04-28T00:37:47;144846.88;;;9.46;66.08
47530;BME280;33272;51.922;7.730;2023-04-28T00:40:15;144848.13;;;9.47;65.75
47530;BME280;33272;51.922;7.730;2023-04-28T00:42:42;144845.63;;;9.46;65.81
47530;BME280;33272;51.922;7.730;2023-04-28T00:45:09;144843.06;;;9.45;66.47
47530;BME280;33272;51.922;7.730;2023-04-28T00:47:38;144841.78;;;9.44;65.90
47530;BME280;33272;51.922;7.730;2023-04-28T00:50:06;144843.06;;;9.45;66.52
47530;BME280;33272;51.922;7.730;2023-04-28T00:52:36;144849.41;;;9.47;66.67
47530;BME280;33272;51.922;7.730;2023-04-28T00:55:05;144849.41;;;9.47;66.73
47530;BME280;33272;51.922;7.730;2023-04-28T00:57:33;144854.47;;;9.49;66.32
47530;BME280;33272;51.922;7.730;2023-04-28T01:00:01;144850.66;;;9.48;66.77
47530;BME280;33272;51.922;7.730;2023-04-28T01:02:29;144845.63;;;9.46;67.32
47530;BME280;33272;51.922;7.730;2023-04-28T01:04:58;144851.91;;;9.48;66.76
47530;BME280;33272;51.922;7.730;2023-04-28T01:07:26;144851.91;;;9.48;66.64
47530;BME280;33272;51.922;7.730;2023-04-28T01:09:53;144851.91;;;9.48;67.77
47530;BME280;33272;51.922;7.730;2023-04-28T01:12:20;144855.75;;;9.50;66.84
47530;BME280;33272;51.922;7.730;2023-04-28T01:14:47;144863.34;;;9.53;67.00
47530;BME280;33272;51.922;7.730;2023-04-28T01:17:14;144864.59;;;9.54;66.82
47530;BME280;33272;51.922;7.730;2023-04-28T01:19:42;144867.09;;;9.55;67.14
47530;BME280;33272;51.922;7.730;2023-04-28T01:22:10;144868.38;;;9.55;66.89
47530;BME280;33272;51.922;7.730;2023-04-28T01:24:41;144872.19;;;9.57;67.37
47530;BME280;33272;51.922;7.730;2023-04-28T01:27:08;144874.72;;;9.58;67.02
47530;BME280;33272;51.922;7.730;2023-04-28T01:29:35;144875.97;;;9.58;67.43
47530;BME280;33272;51.922;7.730;2023-04-28T01:32:02;144881.06;;;9.60;67.41
47530;BME280;33272;51.922;7.730;2023-04-28T01:34:29;144886.13;;;9.62;67.62
47530;BME280;33272;51.922;7.730;2023-04-28T01:36:56;144879.78;;;9.60;67.89
47530;BME280;33272;51.922;7.730;2023-04-28T01:39:23;144886.13;;;9.62;67.08
47530;BME280;33272;51.922;7.730;2023-04-28T01:41:51;144893.72;;;9.65;67.74
47530;BME280;33272;51.922;7.730;2023-04-28T01:44:18;144893.72;;;9.65;67.64
47530;BME280;33272;51.922;7.730;2023-04-28T01:46:45;144887.38;;;9.63;67.46
47530;BME280;33272;51.922;7.730;2023-04-28T01:49:12;144895.00;;;9.66;67.97
47530;BME280;33272;51.922;7.730;2023-04-28T01:51:39;144895.00;;;9.66;67.55
47530;BME280;33272;51.922;7.730;2023-04-28T01:54:07;144900.06;;;9.68;67.32
47530;BME280;33272;51.922;7.730;2023-04-28T01:56:34;144901.34;;;9.68;67.76
47530;BME280;33272;51.922;7.730;2023-04-28T01:59:02;144903.84;;;9.69;67.72
47530;BME280;33272;51.922;7.730;2023-04-28T02:01:29;144903.84;;;9.69;68.16
47530;BME280;33272;51.922;7.730;2023-04-28T02:03:56;144908.94;;;9.71;67.93
47530;BME280;33272;51.922;7.730;2023-04-28T02:06:23;144905.13;;;9.70;67.88
47530;BME280;33272;51.922;7.730;2023-04-28T02:08:52;144907.69;;;9.71;67.62
47530;BME280;33272;51.922;7.730;2023-04-28T02:11:19;144911.44;;;9.72;68.31
47530;BME280;33272;51.922;7.730;2023-04-28T02:13:46;144912.72;;;9.73;67.52
47530;BME280;33272;51.922;7.730;2023-04-28T02:16:14;144915.22;;;9.74;67.63
47530;BME280;33272;51.922;7.730;2023-04-28T02:18:41;144917.78;;;9.75;67.75
47530;BME280;33272;51.922;7.730;2023-04-28T02:21:09;144915.22;;;9.74;68.38
47530;BME280;33272;51.922;7.730;2023-04-28T02:23:36;144915.22;;;9.74;68.39
47530;BME280;33272;51.922;7.730;2023-04-28T02:26:03;144915.22;;;9.74;67.74
47530;BME280;33272;51.922;7.730;2023-04-28T02:28:30;144921.56;;;9.77;68.08
47530;BME280;33272;51.922;7.730;2023-04-28T02:31:05;144920.31;;;9.76;68.22
47530;BME280;33272;51.922;7.730;2023-04-28T02:33:34;144925.41;;;9.78;67.85
47530;BME280;33272;51.922;7.730;2023-04-28T02:36:03;144929.16;;;9.80;68.48
47530;BME280;33272;51.922;7.730;2023-04-28T02:38:31;144930.44;;;9.80;68.48
47530;BME280;33272;51.922;7.730;2023-04-28T02:40:58;144933.00;;;9.81;68.55
47530;BME280;33272;51.922;7.730;2023-04-28T02:43:25;144936.78;;;9.83;68.16
47530;BME280;33272;51.922;7.730;2023-04-28T02:45:53;144934.25;;;9.82;68.68
47530;BME280;33272;51.922;7.730;2023-04-28T02:48:20;144940.59;;;9.84;68.57
47530;BME280;33272;51.922;7.730;2023-04-28T02:50:49;144936.78;;;9.83;69.22
47530;BME280;33272;51.922;7.730;2023-04-28T02:53:17;144938.03;;;9.83;69.42
47530;BME280;33272;51.922;7.730;2023-04-28T02:55:44;144940.59;;;9.84;69.14
47530;BME280;33272;51.922;7.730;2023-04-28T02:58:12;144935.50;;;9.82;69.52
47530;BME280;33272;51.922;7.730;2023-04-28T03:00:39;144940.59;;;9.84;69.39
47530;BME280;33272;51.922;7.730;2023-04-28T03:03:06;144939.34;;;9.84;69.41
47530;BME280;33272;51.922;7.730;2023-04-28T03:05:33;144943.13;;;9.85;69.14
47530;BME280;33272;51.922;7.730;2023-04-28T03:08:01;144944.38;;;9.86;69.75
47530;BME280;33272;51.922;7.730;2023-04-28T03:10:29;144945.63;;;9.86;69.70
47530;BME280;33272;51.922;7.730;2023-04-28T03:12:56;144953.22;;;9.89;69.59
47530;BME280;33272;51.922;7.730;2023-04-28T03:15:23;144958.31;;;9.91;69.92
47530;BME280;33272;51.922;7.730;2023-04-28T03:17:51;144965.91;;;9.94;69.90
47530;BME280;33272;51.922;7.730;2023-04-28T03:20:18;144971.00;;;9.96;70.21
47530;BME280;33272;51.922;7.730;2023-04-28T03:22:45;144976.03;;;9.98;70.21
47530;BME280;33272;51.922;7.730;2023-04-28T03:25:13;144976.03;;;9.98;69.95
47530;BME280;33272;51.922;7.730;2023-04-28T03:27:40;144976.03;;;9.98;70.34
47530;BME280;33272;51.922;7.730;2023-04-28T03:30:08;144979.88;;;10.00;70.51
47530;BME280;33272;51.922;7.730;2023-04-28T03:32:36;144977.28;;;9.99;70.74
47530;BME280;33272;51.922;7.730;2023-04-28T03:35:03;144982.38;;;10.01;70.21
47530;BME280;33272;51.922;7.730;2023-04-28T03:37:31;144981.13;;;10.01;70.62
47530;BME280;33272;51.922;7.730;2023-04-28T03:39:57;144982.38;;;10.01;71.01
47530;BME280;33272;51.922;7.730;2023-04-28T03:42:26;144986.22;;;10.03;71.07
47530;BME280;33272;51.922;7.730;2023-04-28T03:44:53;144987.47;;;10.03;71.30
47530;BME280;33272;51.922;7.730;2023-04-28T03:47:20;144986.22;;;10.03;70.92
47530;BME280;33272;51.922;7.730;2023-04-28T03:49:47;144989.97;;;10.04;71.29
47530;BME280;33272;51.922;7.730;2023-04-28T03:52:14;144989.97;;;10.04;71.31
47530;BME280;33272;51.922;7.730;2023-04-28T03:54:41;144987.47;;;10.03;72.07
47530;BME280;33272;51.922;7.730;2023-04-28T03:57:08;144986.22;;;10.03;72.09
47530;BME280;33272;51.922;7.730;2023-04-28T03:59:36;144991.25;;;10.05;73.19
47530;BME280;33272;51.922;7.730;2023-04-28T04:02:03;144987.47;;;10.03;74.56
47530;BME280;33272;51.922;7.730;2023-04-28T04:04:30;144981.13;;;10.01;75.11
47530;BME280;33272;51.922;7.730;2023-04-28T04:06:58;144971.00;;;9.96;77.00
47530;BME280;33272;51.922;7.730;2023-04-28T04:09:25;144963.41;;;9.93;77.24
47530;BME280;33272;51.922;7.730;2023-04-28T04:11:51;144958.31;;;9.91;78.95
47530;BME280;33272;51.922;7.730;2023-04-28T04:14:18;144954.53;;;9.90;79.72
47530;BME280;33272;51.922;7.730;2023-04-28T04:16:47;144945.63;;;9.86;80.54
47530;BME280;33272;51.922;7.730;2023-04-28T04:19:14;144936.78;;;9.83;80.95
47530;BME280;33272;51.922;7.730;2023-04-28T04:21:41;144927.91;;;9.79;81.08
47530;BME280;33272;51.922;7.730;2023-04-28T04:24:08;144915.22;;;9.74;81.83
47530;BME280;33272;51.922;7.730;2023-04-28T04:26:35;144911.44;;;9.72;83.53
47530;BME280;33272;51.922;7.730;2023-04-28T04:29:02;144907.69;;;9.71;84.21
47530;BME280;33272;51.922;7.730;2023-04-28T04:31:29;144900.06;;;9.68;85.10
47530;BME280;33272;51.922;7.730;2023-04-28T04:33:57;144891.16;;;9.64;85.82
47530;BME280;33272;51.922;7.730;2023-04-28T04:36:24;144879.78;;;9.60;86.66
47530;BME280;33272;51.922;7.730;2023-04-28T04:38:51;144857.00;;;9.50;87.66
47530;BME280;33272;51.922;7.730;2023-04-28T04:41:19;144844.31;;;9.45;87.56
47530;BME280;33272;51.922;7.730;2023-04-28T04:43:46;144827.84;;;9.39;88.08
47530;BME280;33272;51.922;7.730;2023-04-28T04:46:13;144827.84;;;9.39;88.55
47530;BME280;33272;51.922;7.730;2023-04-28T04:48:40;144830.44;;;9.40;88.03
47530;BME280;33272;51.922;7.730;2023-04-28T04:51:09;144838.03;;;9.43;87.99
47530;BME280;33272;51.922;7.730;2023-04-28T04:53:36;144844.31;;;9.45;89.01
47530;BME280;33272;51.922;7.730;2023-04-28T04:56:04;144853.22;;;9.49;88.77
47530;BME280;33272;51.922;7.730;2023-04-28T04:58:31;144859.50;;;9.51;90.06
47530;BME280;33272;51.922;7.730;2023-04-28T05:00:58;144865.84;;;9.54;89.65
47530;BME280;33272;51.922;7.730;2023-04-28T05:03:25;144870.94;;;9.56;90.59
47530;BME280;33272;51.922;7.730;2023-04-28T05:05:52;144878.53;;;9.59;90.33
47530;BME280;33272;51.922;7.730;2023-04-28T05:08:20;144887.38;;;9.63;89.83
47530;BME280;33272;51.922;7.730;2023-04-28T05:10:47;144886.13;;;9.62;90.30
47530;BME280;33272;51.922;7.730;2023-04-28T05:13:14;144891.16;;;9.64;90.23
47530;BME280;33272;51.922;7.730;2023-04-28T05:15:41;144895.00;;;9.66;90.17
47530;BME280;33272;51.922;7.730;2023-04-28T05:18:08;144901.34;;;9.68;90.11
47530;BME280;33272;51.922;7.730;2023-04-28T05:20:36;144911.44;;;9.72;90.60
47530;BME280;33272;51.922;7.730;2023-04-28T05:23:03;144910.19;;;9.72;90.90
47530;BME280;33272;51.922;7.730;2023-04-28T05:25:32;144916.53;;;9.74;90.23
47530;BME280;33272;51.922;7.730;2023-04-28T05:27:59;144912.72;;;9.73;90.45
47530;BME280;33272;51.922;7.730;2023-04-28T05:30:29;144925.41;;;9.78;90.31
47530;BME280;33272;51.922;7.730;2023-04-28T05:32:56;144936.78;;;9.83;89.66
47530;BME280;33272;51.922;7.730;2023-04-28T05:35:23;144943.13;;;9.85;90.07
47530;BME280;33272;51.922;7.730;2023-04-28T05:37:50;144957.06;;;9.91;90.50
47530;BME280;33272;51.922;7.730;2023-04-28T05:40:17;144968.44;;;9.95;90.42
47530;BME280;33272;51.922;7.730;2023-04-28T05:42:46;144983.63;;;10.02;90.34
47530;BME280;33272;51.922;7.730;2023-04-28T05:45:13;144996.31;;;10.07;90.00
47530;BME280;33272;51.922;7.730;2023-04-28T05:47:40;145012.78;;;10.13;89.60
47530;BME280;33272;51.922;7.730;2023-04-28T05:50:09;145033.09;;;10.21;89.72
47530;BME280;33272;51.922;7.730;2023-04-28T05:52:36;145041.94;;;10.25;89.80
47530;BME280;33272;51.922;7.730;2023-04-28T05:55:04;145044.50;;;10.26;89.99
47530;BME280;33272;51.922;7.730;2023-04-28T05:57:31;145059.72;;;10.32;90.31
47530;BME280;33272;51.922;7.730;2023-04-28T05:59:59;145083.78;;;10.42;89.89
47530;BME280;33272;51.922;7.730;2023-04-28T06:02:26;145109.13;;;10.52;89.67
47530;BME280;33272;51.922;7.730;2023-04-28T06:04:53;145133.22;;;10.62;89.48
47530;BME280;33272;51.922;7.730;2023-04-28T06:07:20;145145.91;;;10.67;89.42
47530;BME280;33272;51.922;7.730;2023-04-28T06:09:47;145154.75;;;10.71;89.95
47530;BME280;33272;51.922;7.730;2023-04-28T06:12:14;145166.19;;;10.75;89.87
47530;BME280;33272;51.922;7.730;2023-04-28T06:14:41;145180.09;;;10.81;89.82
47530;BME280;33272;51.922;7.730;2023-04-28T06:17:09;145194.06;;;10.86;89.98
47530;BME280;33272;51.922;7.730;2023-04-28T06:19:36;145204.19;;;10.90;90.38
47530;BME280;33272;51.922;7.730;2023-04-28T06:22:03;145215.63;;;10.95;91.28
47530;BME280;33272;51.922;7.730;2023-04-28T06:24:30;145220.72;;;10.97;90.83
47530;BME280;33272;51.922;7.730;2023-04-28T06:26:58;145229.59;;;11.01;91.09
47530;BME280;33272;51.922;7.730;2023-04-28T06:29:25;145239.72;;;11.05;91.26
47530;BME280;33272;51.922;7.730;2023-04-28T06:31:52;145257.44;;;11.12;91.12
47530;BME280;33272;51.922;7.730;2023-04-28T06:34:24;145277.75;;;11.20;91.64
47530;BME280;33272;51.922;7.730;2023-04-28T06:36:53;145298.03;;;11.28;91.86
47530;BME280;33272;51.922;7.730;2023-04-28T06:39:20;145318.31;;;11.36;92.12
47530;BME280;33272;51.922;7.730;2023-04-28T06:41:47;145337.34;;;11.44;92.10
47530;BME280;33272;51.922;7.730;2023-04-28T06:44:14;145364.00;;;11.55;92.04
47530;BME280;33272;51.922;7.730;2023-04-28T06:46:41;145391.88;;;11.66;92.00
47530;BME280;33272;51.922;7.730;2023-04-28T06:49:08;145407.09;;;11.72;92.41
47530;BME280;33272;51.922;7.730;2023-04-28T06:51:37;145427.44;;;11.80;93.06
47530;BME280;33272;51.922;7.730;2023-04-28T06:54:04;145438.88;;;11.85;92.54
47530;BME280;33272;51.922;7.730;2023-04-28T06:56:31;145459.19;;;11.93;92.95
47530;BME280;33272;51.922;7.730;2023-04-28T06:58:58;145475.69;;;12.00;93.34
47530;BME280;33272;51.922;7.730;2023-04-28T07:01:25;145496.00;;;12.08;93.90
47530;BME280;33272;51.922;7.730;2023-04-28T07:03:52;145525.16;;;12.20;93.67
47530;BME280;33272;51.922;7.730;2023-04-28T07:06:19;145561.97;;;12.35;93.33
47530;BME280;33272;51.922;7.730;2023-04-28T07:08:48;145584.81;;;12.44;93.69
47530;BME280;33272;51.922;7.730;2023-04-28T07:11:15;145605.16;;;12.52;93.61
47530;BME280;33272;51.922;7.730;2023-04-28T07:13:42;145625.44;;;12.60;93.43
47530;BME280;33272;51.922;7.730;2023-04-28T07:16:10;145658.44;;;12.73;93.29
47530;BME280;33272;51.922;7.730;2023-04-28T07:18:37;145680.03;;;12.82;94.04
47530;BME280;33272;51.922;7.730;2023-04-28T07:21:04;145694.03;;;12.88;93.04
47530;BME280;33272;51.922;7.730;2023-04-28T07:23:32;145692.75;;;12.87;93.22
47530;BME280;33272;51.922;7.730;2023-04-28T07:26:00;145694.03;;;12.88;93.54
47530;BME280;33272;51.922;7.730;2023-04-28T07:28:27;145696.53;;;12.89;93.80
47530;BME280;33272;51.922;7.730;2023-04-28T07:30:54;145685.13;;;12.84;94.28
47530;BME280;33272;51.922;7.730;2023-04-28T07:33:22;145699.13;;;12.90;94.55
47530;BME280;33272;51.922;7.730;2023-04-28T07:35:49;145727.03;;;13.01;94.42
47530;BME280;33272;51.922;7.730;2023-04-28T07:38:17;145756.25;;;13.13;95.13
47530;BME280;33272;51.922;7.730;2023-04-28T07:40:46;145793.16;;;13.28;94.31
47530;BME280;33272;51.922;7.730;2023-04-28T07:43:15;145828.69;;;13.42;94.40
47530;BME280;33272;51.922;7.730;2023-04-28T07:45:42;145857.94;;;13.54;93.90
47530;BME280;33272;51.922;7.730;2023-04-28T07:48:13;145863.03;;;13.56;92.79
47530;BME280;33272;51.922;7.730;2023-04-28T07:50:40;145855.41;;;13.53;93.21
47530;BME280;33272;51.922;7.730;2023-04-28T07:53:08;145854.09;;;13.52;93.08
47530;BME280;33272;51.922;7.730;2023-04-28T07:55:35;145860.44;;;13.55;93.70
47530;BME280;33272;51.922;7.730;2023-04-28T07:58:02;145864.28;;;13.56;93.81
47530;BME280;33272;51.922;7.730;2023-04-28T08:00:30;145868.06;;;13.58;94.16
47530;BME280;33272;51.922;7.730;2023-04-28T08:02:57;145870.66;;;13.59;93.64
47530;BME280;33272;51.922;7.730;2023-04-28T08:05:24;145869.34;;;13.58;93.70
47530;BME280;33272;51.922;7.730;2023-04-28T08:07:52;145878.28;;;13.62;93.61
47530;BME280;33272;51.922;7.730;2023-04-28T08:10:19;145888.44;;;13.66;93.47
47530;BME280;33272;51.922;7.730;2023-04-28T08:12:46;145906.19;;;13.73;93.52
47530;BME280;33272;51.922;7.730;2023-04-28T08:15:13;145917.66;;;13.78;93.59
47530;BME280;33272;51.922;7.730;2023-04-28T08:17:41;145931.59;;;13.83;93.67
47530;BME280;33272;51.922;7.730;2023-04-28T08:20:09;145935.44;;;13.85;93.27
47530;BME280;33272;51.922;7.730;2023-04-28T08:22:36;145932.88;;;13.84;94.20
47530;BME280;33272;51.922;7.730;2023-04-28T08:25:04;145923.97;;;13.80;94.75
47530;BME280;33272;51.922;7.730;2023-04-28T08:27:31;145906.19;;;13.73;95.58
47530;BME280;33272;51.922;7.730;2023-04-28T08:29:59;145894.78;;;13.68;96.59
47530;BME280;33272;51.922;7.730;2023-04-28T08:32:25;145864.28;;;13.56;98.09
47530;BME280;33272;51.922;7.730;2023-04-28T08:34:54;145828.69;;;13.42;99.25
47530;BME280;33272;51.922;7.730;2023-04-28T08:37:21;145793.16;;;13.28;100.00
47530;BME280;33272;51.922;7.730;2023-04-28T08:39:48;145770.22;;;13.18;100.00
47530;BME280;33272;51.922;7.730;2023-04-28T08:42:15;145761.34;;;13.15;100.00
47530;BME280;33272;51.922;7.730;2023-04-28T08:44:44;145771.50;;;13.19;100.00
47530;BME280;33272;51.922;7.730;2023-04-28T08:47:13;145789.31;;;13.26;100.00
47530;BME280;33272;51.922;7.730;2023-04-28T08:49:40;145800.78;;;13.31;100.00
47530;BME280;33272;51.922;7.730;2023-04-28T08:52:12;145828.69;;;13.42;100.00
47530;BME280;33272;51.922;7.730;2023-04-28T08:54:42;145876.97;;;13.61;100.00
47530;BME280;33272;51.922;7.730;2023-04-28T08:57:10;145939.22;;;13.86;100.00
47530;BME280;33272;51.922;7.730;2023-04-28T08:59:40;146024.41;;;14.21;100.00
47530;BME280;33272;51.922;7.730;2023-04-28T09:02:07;146117.28;;;14.58;100.00
47530;BME280;33272;51.922;7.730;2023-04-28T09:04:35;146207.59;;;14.94;100.00
47530;BME280;33272;51.922;7.730;2023-04-28T09:07:02;146282.63;;;15.24;100.00
47530;BME280;33272;51.922;7.730;2023-04-28T09:09:30;146327.16;;;15.42;100.00
47530;BME280;33272;51.922;7.730;2023-04-28T09:11:59;146392.09;;;15.68;100.00
47530;BME280;33272;51.922;7.730;2023-04-28T09:14:28;146457.00;;;15.94;100.00
47530;BME280;33272;51.922;7.730;2023-04-28T09:16:56;146510.47;;;16.16;100.00
47530;BME280;33272;51.922;7.730;2023-04-28T09:19:23;146542.31;;;16.29;100.00
47530;BME280;33272;51.922;7.730;2023-04-28T09:21:53;146576.72;;;16.42;100.00
47530;BME280;33272;51.922;7.730;2023-04-28T09:24:28;146603.44;;;16.53;100.00
47530;BME280;33272;51.922;7.730;2023-04-28T09:26:57;146630.16;;;16.64;100.00
47530;BME280;33272;51.922;7.730;2023-04-28T09:29:24;146672.28;;;16.81;100.00
47530;BME280;33272;51.922;7.730;2023-04-28T09:31:51;146728.31;;;17.03;100.00
47530;BME280;33272;51.922;7.730;2023-04-28T09:34:19;146765.28;;;17.18;99.75
47530;BME280;33272;51.922;7.730;2023-04-28T09:36:46;146795.84;;;17.30;99.66
47530;BME280;33272;51.922;7.730;2023-04-28T09:39:13;146813.72;;;17.37;98.73
47530;BME280;33272;51.922;7.730;2023-04-28T09:41:43;146804.78;;;17.34;98.01
47530;BME280;33272;51.922;7.730;2023-04-28T09:44:15;146795.84;;;17.30;98.07
47530;BME280;33272;51.922;7.730;2023-04-28T09:46:44;146808.59;;;17.35;98.17
47530;BME280;33272;51.922;7.730;2023-04-28T09:49:11;146840.44;;;17.48;98.48
47530;BME280;33272;51.922;7.730;2023-04-28T09:51:39;146892.72;;;17.69;97.21
47530;BME280;33272;51.922;7.730;2023-04-28T09:54:06;146927.19;;;17.83;96.89
47530;BME280;33272;51.922;7.730;2023-04-28T09:56:34;146964.16;;;17.98;96.70
47530;BME280;33272;51.922;7.730;2023-04-28T09:59:03;146999.84;;;18.12;95.13
47530;BME280;33272;51.922;7.730;2023-04-28T10:01:37;146975.63;;;18.02;93.55
47530;BME280;33272;51.922;7.730;2023-04-28T10:04:05;147008.75;;;18.16;94.09
47530;BME280;33272;51.922;7.730;2023-04-28T10:06:34;147048.34;;;18.32;92.53
47530;BME280;33272;51.922;7.730;2023-04-28T10:09:02;147061.06;;;18.37;92.33
47530;BME280;33272;51.922;7.730;2023-04-28T10:11:29;147035.56;;;18.26;91.34
47530;BME280;33272;51.922;7.730;2023-04-28T10:13:56;147008.75;;;18.16;91.06
47530;BME280;33272;51.922;7.730;2023-04-28T10:16:23;146969.22;;;18.00;90.83
47530;BME280;33272;51.922;7.730;2023-04-28T10:18:55;146952.66;;;17.93;91.70
47530;BME280;33272;51.922;7.730;2023-04-28T10:21:24;146915.72;;;17.78;92.56
47530;BME280;33272;51.922;7.730;2023-04-28T10:24:06;146927.19;;;17.83;93.17
47530;BME280;33272;51.922;7.730;2023-04-28T10:27:07;146919.53;;;17.80;91.75
47530;BME280;33272;51.922;7.730;2023-04-28T10:29:35;146945.00;;;17.90;93.68
47530;BME280;33272;51.922;7.730;2023-04-28T10:32:20;146962.91;;;17.97;93.56
47530;BME280;33272;51.922;7.730;2023-04-28T10:34:49;147021.53;;;18.21;93.51
47530;BME280;33272;51.922;7.730;2023-04-28T10:37:16;147077.63;;;18.43;92.38
47530;BME280;33272;51.922;7.730;2023-04-28T10:40:30;147129.94;;;18.64;90.09
47530;BME280;33272;51.922;7.730;2023-04-28T10:42:57;147202.69;;;18.93;90.26
47530;BME280;33272;51.922;7.730;2023-04-28T10:45:59;147218.03;;;18.99;87.01
47530;BME280;33272;51.922;7.730;2023-04-28T10:48:55;147214.22;;;18.98;87.84
47530;BME280;33272;51.922;7.730;2023-04-28T10:51:33;147219.28;;;19.00;87.67
47530;BME280;33272;51.922;7.730;2023-04-28T10:54:21;147181.00;;;18.85;87.23
47530;BME280;33272;51.922;7.730;2023-04-28T10:57:17;147124.84;;;18.62;87.64
47530;BME280;33272;51.922;7.730;2023-04-28T10:59:45;147066.19;;;18.39;89.30
47530;BME280;33272;51.922;7.730;2023-04-28T11:02:47;147053.41;;;18.34;89.00
47530;BME280;33272;51.922;7.730;2023-04-28T11:05:18;147084.03;;;18.46;90.35
47530;BME280;33272;51.922;7.730;2023-04-28T11:08:31;146961.59;;;17.97;90.42
47530;BME280;33272;51.922;7.730;2023-04-28T11:11:21;146928.44;;;17.83;93.11
47530;BME280;33272;51.922;7.730;2023-04-28T11:13:50;146974.34;;;18.02;93.43
47530;BME280;33272;51.922;7.730;2023-04-28T11:16:20;147015.16;;;18.18;92.76
47530;BME280;33272;51.922;7.730;2023-04-28T11:18:54;147062.31;;;18.37;91.05
47530;BME280;33272;51.922;7.730;2023-04-28T11:21:22;147161.88;;;18.77;90.67
47530;BME280;33272;51.922;7.730;2023-04-28T11:23:51;147161.88;;;18.77;91.98
47530;BME280;33272;51.922;7.730;2023-04-28T11:26:19;147237.13;;;19.07;90.00
47530;BME280;33272;51.922;7.730;2023-04-28T11:28:50;147322.66;;;19.41;89.60
47530;BME280;33272;51.922;7.730;2023-04-28T11:31:18;147362.22;;;19.57;87.11
47530;BME280;33272;51.922;7.730;2023-04-28T11:33:54;147375.00;;;19.62;85.91
47530;BME280;33272;51.922;7.730;2023-04-28T11:36:24;147399.31;;;19.72;86.04
47530;BME280;33272;51.922;7.730;2023-04-28T11:38:54;147446.53;;;19.91;85.07
47530;BME280;33272;51.922;7.730;2023-04-28T11:41:22;147482.31;;;20.05;85.96
47530;BME280;33272;51.922;7.730;2023-04-28T11:43:49;147479.72;;;20.04;85.50
47530;BME280;33272;51.922;7.730;2023-04-28T11:46:18;147488.66;;;20.08;84.60
47530;BME280;33272;51.922;7.730;2023-04-28T11:48:46;147500.19;;;20.12;84.13
47530;BME280;33272;51.922;7.730;2023-04-28T11:51:35;147526.97;;;20.23;81.87
47530;BME280;33272;51.922;7.730;2023-04-28T11:54:05;147574.25;;;20.42;83.19
47530;BME280;33272;51.922;7.730;2023-04-28T11:56:37;147592.16;;;20.49;82.15
47530;BME280;33272;51.922;7.730;2023-04-28T11:59:07;147552.56;;;20.33;82.26
47530;BME280;33272;51.922;7.730;2023-04-28T12:01:44;147497.66;;;20.11;82.40
47530;BME280;33272;51.922;7.730;2023-04-28T12:04:12;147446.53;;;19.91;83.61
47530;BME280;33272;51.922;7.730;2023-04-28T12:06:39;147417.16;;;19.79;84.09
47530;BME280;33272;51.922;7.730;2023-04-28T12:09:18;147421.03;;;19.81;84.19
47530;BME280;33272;51.922;7.730;2023-04-28T12:11:56;147483.59;;;20.06;85.30
47530;BME280;33272;51.922;7.730;2023-04-28T12:14:24;147394.19;;;19.70;85.84
47530;BME280;33272;51.922;7.730;2023-04-28T12:16:51;147451.66;;;19.93;84.57
47530;BME280;33272;51.922;7.730;2023-04-28T12:19:18;147500.19;;;20.12;84.74
47530;BME280;33272;51.922;7.730;2023-04-28T12:22:03;147543.59;;;20.30;83.62
47530;BME280;33272;51.922;7.730;2023-04-28T12:24:32;147551.25;;;20.33;82.92
47530;BME280;33272;51.922;7.730;2023-04-28T12:27:17;147520.59;;;20.21;82.51
47530;BME280;33272;51.922;7.730;2023-04-28T12:29:46;147510.38;;;20.17;83.16
47530;BME280;33272;51.922;7.730;2023-04-28T12:32:13;147493.78;;;20.10;83.18
47530;BME280;33272;51.922;7.730;2023-04-28T12:34:43;147482.31;;;20.05;83.26
47530;BME280;33272;51.922;7.730;2023-04-28T12:37:10;147469.53;;;20.00;83.38
47530;BME280;33272;51.922;7.730;2023-04-28T12:39:40;147464.41;;;19.98;82.53
47530;BME280;33272;51.922;7.730;2023-04-28T12:42:07;147461.88;;;19.97;83.61
47530;BME280;33272;51.922;7.730;2023-04-28T12:44:36;147477.19;;;20.03;84.80
47530;BME280;33272;51.922;7.730;2023-04-28T12:47:06;147495.06;;;20.10;84.81
47530;BME280;33272;51.922;7.730;2023-04-28T12:49:34;147474.66;;;20.02;84.14
47530;BME280;33272;51.922;7.730;2023-04-28T12:52:01;147484.84;;;20.06;84.48
47530;BME280;33272;51.922;7.730;2023-04-28T12:54:28;147489.97;;;20.08;84.36
47530;BME280;33272;51.922;7.730;2023-04-28T12:56:57;147478.47;;;20.04;84.32
47530;BME280;33272;51.922;7.730;2023-04-28T12:59:24;147461.88;;;19.97;85.37
47530;BME280;33272;51.922;7.730;2023-04-28T13:01:51;147389.09;;;19.68;87.16